This is the latest recevied weather packets stored in our database for station/object EA4URC-13. If no packets are shown the sender has not sent any weather packets the latest 10 day(s).
| Time | Temp. | Humidity | Pressure | Rain* | Wind** | Luminosity | Snow |
|---|---|---|---|---|---|---|---|
| 1777992212 | 18.89° C | 30% | 1000.1 hPa | - | - | - | - |
| 1777991312 | 18.89° C | 29% | 1000.1 hPa | - | - | - | - |
| 1777990412 | 17.22° C | 31% | 1001.1 hPa | - | - | - | - |
| 1777989512 | 17.78° C | 31% | 1000.9 hPa | - | - | - | - |
| 1777988607 | 17.78° C | 32% | 1001 hPa | - | - | - | - |
| 1777987707 | 18.33° C | 31% | 1000.8 hPa | - | - | - | - |
| 1777986807 | 17.22° C | 32% | 1001.4 hPa | - | - | - | - |
| 1777985907 | 17.78° C | 32% | 1001.2 hPa | - | - | - | - |
| 1777985007 | 16.11° C | 33% | 1002.1 hPa | - | - | - | - |
| 1777984107 | 18.89° C | 30% | 1000.7 hPa | - | - | - | - |
| 1777983207 | 18.89° C | 31% | 1000.7 hPa | - | - | - | - |
| 1777982307 | 18.89° C | 32% | 1000.9 hPa | - | - | - | - |
| 1777981407 | 17.78° C | 33% | 1001.5 hPa | - | - | - | - |
| 1777980507 | 18.33° C | 34% | 1001.5 hPa | - | - | - | - |
| 1777979607 | 17.78° C | 34% | 1001.8 hPa | - | - | - | - |
| 1777978707 | 17.78° C | 32% | 1001.8 hPa | - | - | - | - |
| 1777977807 | 17.22° C | 35% | 1002.2 hPa | - | - | - | - |
| 1777976907 | 15.56° C | 36% | 1003 hPa | - | - | - | - |
| 1777976007 | 15° C | 37% | 1003.4 hPa | - | - | - | - |
| 1777975107 | 15° C | 38% | 1003.3 hPa | - | - | - | - |
| 1777974207 | 16.67° C | 36% | 1002.5 hPa | - | - | - | - |
| 1777973307 | 13.33° C | 38% | 1004 hPa | - | - | - | - |
| 1777972407 | 15° C | 37% | 1003.1 hPa | - | - | - | - |
| 1777971507 | 14.44° C | 41% | 1003.3 hPa | - | - | - | - |
| 1777970607 | 13.89° C | 41% | 1003.7 hPa | - | - | - | - |
* Rain since midnight (hover to see other rain measurements)
** Current wind speed in m/s (hover to see current wind gust speed)